createdAt,value
2019-01-15T00:00:17.201Z,93718.30
2019-01-15T00:02:46.232Z,93712.23
2019-01-15T00:05:14.857Z,93720.53
2019-01-15T00:07:43.535Z,93734.56
2019-01-15T00:10:12.334Z,93733.45
2019-01-15T00:12:41.000Z,93742.21
2019-01-15T00:15:11.030Z,93754.02
2019-01-15T00:17:39.803Z,93756.59
2019-01-15T00:20:10.629Z,93762.46
2019-01-15T00:22:39.314Z,93762.94
2019-01-15T00:25:08.831Z,93765.52
2019-01-15T00:27:37.499Z,93772.20
2019-01-15T00:30:09.361Z,93778.44
2019-01-15T00:32:37.983Z,93785.59
2019-01-15T00:35:08.079Z,93779.20
2019-01-15T00:37:38.625Z,93786.08
2019-01-15T00:40:10.474Z,93783.67
2019-01-15T00:42:39.144Z,93788.75
2019-01-15T00:45:09.521Z,93804.69
2019-01-15T00:47:38.226Z,93819.34
2019-01-15T00:50:10.327Z,93820.12
2019-01-15T00:52:39.040Z,93839.72
2019-01-15T00:55:09.612Z,93837.78
2019-01-15T00:57:38.310Z,93838.48
2019-01-15T01:00:15.926Z,93835.10
2019-01-15T01:02:44.647Z,93836.20
2019-01-15T01:05:17.008Z,93844.95
2019-01-15T01:07:45.785Z,93853.09
2019-01-15T01:10:15.806Z,93846.70
2019-01-15T01:12:44.509Z,93867.91
2019-01-15T01:15:15.485Z,93849.59
2019-01-15T01:17:44.230Z,93868.41
2019-01-15T01:20:20.878Z,93849.58
2019-01-15T01:22:49.657Z,93869.03
2019-01-15T01:25:18.346Z,93877.17
2019-01-15T01:27:46.998Z,93894.54
2019-01-15T01:30:20.685Z,93904.27
2019-01-15T01:32:49.399Z,93894.27
2019-01-15T01:35:18.117Z,93886.91
2019-01-15T01:37:46.867Z,93886.11
2019-01-15T01:40:17.441Z,93904.27
2019-01-15T01:42:46.160Z,93892.66
2019-01-15T01:45:16.234Z,93898.25
2019-01-15T01:47:44.858Z,93895.19
2019-01-15T01:50:14.446Z,93899.50
2019-01-15T01:52:43.350Z,93911.10
2019-01-15T01:55:13.659Z,93908.23
2019-01-15T01:57:42.279Z,93910.27
2019-01-15T02:00:20.275Z,93911.08
2019-01-15T02:02:48.889Z,93917.33
2019-01-15T02:05:17.675Z,93919.75
2019-01-15T02:07:46.461Z,93919.65
2019-01-15T02:10:18.462Z,93917.20
2019-01-15T02:12:47.095Z,93921.72
2019-01-15T02:15:20.475Z,93925.63
2019-01-15T02:17:49.152Z,93934.84
2019-01-15T02:20:19.795Z,93932.03
2019-01-15T02:22:48.482Z,93952.73
2019-01-15T02:25:17.148Z,93941.45
2019-01-15T02:27:47.342Z,93925.16
2019-01-15T02:30:21.155Z,93921.02
2019-01-15T02:32:51.146Z,93939.14
2019-01-15T02:35:19.536Z,93946.30
2019-01-15T02:37:48.153Z,93945.50
2019-01-15T02:40:17.014Z,93940.73
2019-01-15T02:42:46.634Z,93949.02
2019-01-15T02:45:18.704Z,93942.75
2019-01-15T02:47:47.771Z,93959.69
2019-01-15T02:50:18.101Z,93966.05
2019-01-15T02:52:46.771Z,93969.08
2019-01-15T02:55:15.448Z,93952.52
2019-01-15T02:57:44.139Z,93956.52
2019-01-15T03:00:15.842Z,93958.91
2019-01-15T03:02:44.450Z,93949.41
2019-01-15T03:05:13.617Z,93934.48
2019-01-15T03:07:42.226Z,93934.88
2019-01-15T03:10:13.946Z,93931.73
2019-01-15T03:12:44.200Z,93932.73
2019-01-15T03:15:12.970Z,93936.26
2019-01-15T03:17:41.697Z,93917.90
2019-01-15T03:20:15.635Z,93924.59
2019-01-15T03:22:44.264Z,93931.76
2019-01-15T03:25:13.464Z,93935.84
2019-01-15T03:27:42.097Z,93926.76
2019-01-15T03:30:23.769Z,93931.50
2019-01-15T03:32:52.459Z,93931.88
2019-01-15T03:35:21.097Z,93941.72
2019-01-15T03:37:50.173Z,93949.51
2019-01-15T03:40:23.709Z,93958.42
2019-01-15T03:42:52.365Z,93947.11
2019-01-15T03:45:22.371Z,93967.66
2019-01-15T03:47:51.045Z,93957.77
2019-01-15T03:50:19.681Z,93955.42
2019-01-15T03:52:48.341Z,93958.16
2019-01-15T03:55:18.158Z,93945.29
2019-01-15T03:57:46.980Z,93941.20
2019-01-15T04:00:18.320Z,93941.73
2019-01-15T04:02:46.990Z,93943.36
2019-01-15T04:05:17.122Z,93961.91
2019-01-15T04:07:46.906Z,93926.02
2019-01-15T04:10:15.562Z,93946.59
2019-01-15T04:12:44.527Z,93923.84
2019-01-15T04:15:14.079Z,93932.60
2019-01-15T04:17:42.713Z,93945.03
2019-01-15T04:20:14.093Z,93941.68
2019-01-15T04:22:42.681Z,93931.22
2019-01-15T04:25:12.667Z,93951.25
2019-01-15T04:27:41.355Z,93940.48
2019-01-15T04:30:15.353Z,93932.89
2019-01-15T04:32:44.042Z,93928.80
2019-01-15T04:35:12.663Z,93942.04
2019-01-15T04:37:41.380Z,93930.24
2019-01-15T04:40:15.408Z,93936.53
2019-01-15T04:42:44.048Z,93933.00
2019-01-15T04:45:15.524Z,93940.67
2019-01-15T04:47:44.198Z,93937.53
2019-01-15T04:50:12.915Z,93940.13
2019-01-15T04:52:43.317Z,93942.63
2019-01-15T04:55:12.901Z,93935.76
2019-01-15T04:57:41.602Z,93938.55
2019-01-15T05:00:13.319Z,93930.05
2019-01-15T05:02:42.255Z,93932.27
2019-01-15T05:05:10.934Z,93947.45
2019-01-15T05:07:39.612Z,93945.56
2019-01-15T05:10:11.408Z,93946.80
2019-01-15T05:12:41.662Z,93950.39
2019-01-15T05:15:13.270Z,93955.13
2019-01-15T05:17:41.925Z,93952.05
2019-01-15T05:20:13.916Z,93947.89
2019-01-15T05:22:42.574Z,93962.17
2019-01-15T05:25:19.647Z,93966.00
2019-01-15T05:27:48.334Z,93977.45
2019-01-15T05:30:19.543Z,93977.02
2019-01-15T05:32:48.236Z,93991.67
2019-01-15T05:35:16.858Z,93998.70
2019-01-15T05:37:45.639Z,94021.41
2019-01-15T05:40:15.500Z,93997.69
2019-01-15T05:42:44.106Z,94014.06
2019-01-15T05:45:17.955Z,94003.52
2019-01-15T05:47:47.030Z,94013.95
2019-01-15T05:50:17.306Z,94026.31
2019-01-15T05:52:45.998Z,94024.36
2019-01-15T05:55:14.818Z,94035.53
2019-01-15T05:57:43.484Z,94048.77
2019-01-15T06:00:16.973Z,94041.37
2019-01-15T06:02:45.674Z,94048.87
2019-01-15T06:05:14.557Z,94049.28
2019-01-15T06:07:43.186Z,94040.50
2019-01-15T06:10:14.119Z,94064.70
2019-01-15T06:12:42.729Z,94054.94
2019-01-15T06:15:16.724Z,94059.25
2019-01-15T06:17:45.389Z,94071.77
2019-01-15T06:20:21.239Z,94080.36
2019-01-15T06:22:49.856Z,94072.75
2019-01-15T06:25:18.474Z,94092.52
2019-01-15T06:27:47.246Z,94097.13
2019-01-15T06:30:21.176Z,94108.82
2019-01-15T06:32:49.854Z,94102.81
2019-01-15T06:35:18.460Z,94101.11
2019-01-15T06:37:47.145Z,94104.34
2019-01-15T06:40:20.270Z,94105.54
2019-01-15T06:42:48.930Z,94114.75
2019-01-15T06:45:26.184Z,94129.48
2019-01-15T06:47:54.859Z,94130.03
2019-01-15T06:50:23.501Z,94135.83
2019-01-15T06:52:52.108Z,94143.71
2019-01-15T06:55:22.088Z,94146.41
2019-01-15T06:57:51.585Z,94152.02
2019-01-15T07:00:25.939Z,94147.58
2019-01-15T07:02:54.740Z,94152.48
2019-01-15T07:05:23.328Z,94152.91
2019-01-15T07:07:52.013Z,94143.76
2019-01-15T07:10:35.458Z,94154.48
2019-01-15T07:13:04.142Z,94160.55
2019-01-15T07:15:32.770Z,94167.48
2019-01-15T07:18:01.452Z,94164.52
2019-01-15T07:20:30.075Z,94160.11
2019-01-15T07:22:58.752Z,94170.02
2019-01-15T07:25:29.240Z,94169.50
2019-01-15T07:27:58.059Z,94187.52
2019-01-15T07:30:29.781Z,94188.14
2019-01-15T07:32:58.409Z,94188.56
2019-01-15T07:35:27.021Z,94199.41
2019-01-15T07:37:55.671Z,94198.75
2019-01-15T07:40:24.343Z,94204.51
2019-01-15T07:42:52.960Z,94210.30
2019-01-15T07:45:21.608Z,94212.20
2019-01-15T07:47:50.289Z,94222.53
2019-01-15T07:50:21.269Z,94225.89
2019-01-15T07:52:49.919Z,94239.29
2019-01-15T07:55:20.445Z,94232.95
2019-01-15T07:57:49.196Z,94242.08
2019-01-15T08:00:20.357Z,94247.11
2019-01-15T08:02:52.516Z,94253.73
2019-01-15T08:05:23.035Z,94254.39
2019-01-15T08:07:51.705Z,94262.88
2019-01-15T08:10:20.719Z,94276.86
2019-01-15T08:12:49.520Z,94278.23
2019-01-15T08:15:26.582Z,94287.58
2019-01-15T08:17:55.275Z,94292.20
2019-01-15T08:20:23.989Z,94294.85
2019-01-15T08:22:53.091Z,94302.08
2019-01-15T08:25:21.757Z,94304.91
2019-01-15T08:27:50.449Z,94308.44
2019-01-15T08:30:21.776Z,94303.16
2019-01-15T08:32:50.471Z,94312.59
2019-01-15T08:35:19.100Z,94313.60
2019-01-15T08:37:47.900Z,94307.27
2019-01-15T08:40:18.112Z,94313.27
2019-01-15T08:42:46.727Z,94300.23
2019-01-15T08:45:17.407Z,94303.34
2019-01-15T08:47:50.630Z,94306.38
2019-01-15T08:50:25.434Z,94311.80
2019-01-15T08:52:54.112Z,94314.87
2019-01-15T08:55:22.734Z,94316.77
2019-01-15T08:57:51.459Z,94312.27
2019-01-15T09:00:20.092Z,94319.45
2019-01-15T09:02:48.772Z,94322.98
2019-01-15T09:05:17.535Z,94321.80
2019-01-15T09:07:46.271Z,94323.73
2019-01-15T09:10:16.452Z,94325.69
2019-01-15T09:12:45.254Z,94324.89
2019-01-15T09:15:23.301Z,94328.84
2019-01-15T09:17:51.986Z,94331.54
2019-01-15T09:20:21.760Z,94332.48
2019-01-15T09:22:50.782Z,94328.00
2019-01-15T09:25:19.464Z,94333.62
2019-01-15T09:27:48.301Z,94330.36
2019-01-15T09:30:25.538Z,94332.87
2019-01-15T09:32:54.238Z,94329.82
2019-01-15T09:35:22.848Z,94333.29
2019-01-15T09:37:51.832Z,94337.00
2019-01-15T09:40:22.457Z,94337.83
2019-01-15T09:42:51.436Z,94346.69
2019-01-15T09:45:22.063Z,94346.92
2019-01-15T09:48:01.547Z,94352.97
2019-01-15T09:50:30.233Z,94348.73
2019-01-15T09:52:59.506Z,94354.39
2019-01-15T09:55:28.132Z,94354.06
2019-01-15T09:57:56.850Z,94356.71
2019-01-15T10:00:25.424Z,94356.95
2019-01-15T10:02:54.111Z,94359.36
2019-01-15T10:05:22.723Z,94356.80
2019-01-15T10:07:51.398Z,94350.35
2019-01-15T10:10:20.031Z,94356.88
2019-01-15T10:12:48.727Z,94357.27
2019-01-15T10:15:21.512Z,94354.25
2019-01-15T10:17:50.129Z,94363.30
2019-01-15T10:20:22.320Z,94359.72
2019-01-15T10:22:53.461Z,94357.59
2019-01-15T10:25:23.714Z,94365.56
2019-01-15T10:27:55.973Z,94367.50
2019-01-15T10:30:43.239Z,94362.80
2019-01-15T10:33:26.159Z,94354.73
2019-01-15T10:35:54.875Z,94351.92
2019-01-15T10:38:26.884Z,94353.81
2019-01-15T10:40:57.948Z,94350.25
2019-01-15T10:43:29.153Z,94353.27
2019-01-15T10:45:59.291Z,94361.77
2019-01-15T10:48:27.912Z,94357.62
2019-01-15T10:50:56.575Z,94354.95
2019-01-15T10:53:25.271Z,94346.59
2019-01-15T10:55:53.945Z,94346.52
2019-01-15T10:58:22.553Z,94335.27
2019-01-15T11:00:54.362Z,94334.14
2019-01-15T11:03:24.546Z,94341.88
2019-01-15T11:05:53.250Z,94340.69
2019-01-15T11:08:23.501Z,94345.12
2019-01-15T11:10:53.755Z,94334.00
2019-01-15T11:13:22.455Z,94325.98
2019-01-15T11:15:51.068Z,94326.95
2019-01-15T11:18:19.744Z,94328.52
2019-01-15T11:20:48.754Z,94323.78
2019-01-15T11:23:17.478Z,94311.48
2019-01-15T11:25:46.105Z,94293.47
2019-01-15T11:28:14.809Z,94296.27
2019-01-15T11:30:43.421Z,94295.91
2019-01-15T11:33:12.029Z,94296.09
2019-01-15T11:35:43.862Z,94282.75
2019-01-15T11:38:12.537Z,94282.56
2019-01-15T11:40:41.318Z,94276.61
2019-01-15T11:43:09.933Z,94270.39
2019-01-15T11:45:38.619Z,94276.03
2019-01-15T11:48:07.328Z,94265.80
2019-01-15T11:50:36.038Z,94264.22
2019-01-15T11:53:04.653Z,94256.89
2019-01-15T11:55:33.365Z,94255.58
2019-01-15T11:58:02.073Z,94250.11
2019-01-15T12:00:32.881Z,94241.95
2019-01-15T12:03:03.142Z,94238.13
2019-01-15T12:05:49.815Z,94233.67
2019-01-15T12:08:38.183Z,94236.68
2019-01-15T12:11:23.399Z,94239.59
2019-01-15T12:13:53.876Z,94230.61
2019-01-15T12:16:40.575Z,94233.67
2019-01-15T12:19:13.995Z,94235.12
2019-01-15T12:21:50.185Z,94231.77
2019-01-15T12:24:29.376Z,94223.92
2019-01-15T12:27:16.029Z,94225.20
2019-01-15T12:29:56.799Z,94227.12
2019-01-15T12:32:43.329Z,94222.50
2019-01-15T12:35:19.516Z,94217.72
2019-01-15T12:38:04.529Z,94216.89
2019-01-15T12:40:51.396Z,94216.28
2019-01-15T12:43:30.824Z,94215.79
2019-01-15T12:46:07.117Z,94198.67
2019-01-15T12:48:43.291Z,94214.36
2019-01-15T12:51:16.415Z,94215.30
2019-01-15T12:53:52.487Z,94216.27
2019-01-15T12:56:25.748Z,94205.09
2019-01-15T12:58:58.917Z,94211.95
2019-01-15T13:01:45.334Z,94208.42
2019-01-15T13:04:19.014Z,94199.48
2019-01-15T13:06:51.964Z,94213.70
2019-01-15T13:09:38.342Z,94198.52
2019-01-15T13:12:11.590Z,94192.59
2019-01-15T13:14:41.993Z,94198.00
2019-01-15T13:17:15.055Z,94198.48
2019-01-15T13:19:48.072Z,94194.48
2019-01-15T13:22:22.428Z,94186.92
2019-01-15T13:24:58.526Z,94188.09
2019-01-15T13:27:40.901Z,94179.64
2019-01-15T13:30:16.431Z,94182.80
2019-01-15T13:32:49.458Z,94191.64
2019-01-15T13:35:25.582Z,94191.33
2019-01-15T13:38:12.313Z,94178.68
2019-01-15T13:40:42.602Z,94187.45
2019-01-15T13:43:24.841Z,94181.40
2019-01-15T13:46:00.993Z,94176.92
2019-01-15T13:48:34.591Z,94174.04
2019-01-15T13:51:20.959Z,94172.76
2019-01-15T13:53:57.101Z,94170.36
2019-01-15T13:56:30.220Z,94161.44
2019-01-15T13:59:18.513Z,94167.89
2019-01-15T14:01:53.402Z,94157.73
2019-01-15T14:04:23.591Z,94166.69
2019-01-15T14:07:06.123Z,94163.00
2019-01-15T14:09:52.763Z,94155.33
2019-01-15T14:12:39.112Z,94157.12
2019-01-15T14:15:15.032Z,94152.93
2019-01-15T14:17:48.325Z,94151.04
2019-01-15T14:20:18.506Z,94149.53
2019-01-15T14:22:51.422Z,94151.94
2019-01-15T14:25:27.409Z,94150.24
2019-01-15T14:28:03.415Z,94162.23
2019-01-15T14:30:36.735Z,94162.23
2019-01-15T14:33:07.091Z,94157.78
2019-01-15T14:35:46.589Z,94164.80
2019-01-15T14:38:28.917Z,94161.11
2019-01-15T14:41:11.153Z,94160.97
2019-01-15T14:43:44.110Z,94154.89
2019-01-15T14:46:30.740Z,94145.63
2019-01-15T14:49:17.351Z,94154.57
2019-01-15T14:51:47.550Z,94157.75
2019-01-15T14:54:33.753Z,94150.73
2019-01-15T14:57:09.706Z,94159.03
2019-01-15T14:59:42.402Z,94165.13
2019-01-15T15:02:12.587Z,94167.20
2019-01-15T15:04:42.781Z,94172.94
2019-01-15T15:07:13.039Z,94165.13
2019-01-15T15:09:58.267Z,94161.59
2019-01-15T15:12:34.182Z,94161.27
2019-01-15T15:15:13.244Z,94169.77
2019-01-15T15:18:01.462Z,94155.86
2019-01-15T15:20:31.732Z,94161.27
2019-01-15T15:23:02.000Z,94169.59
2019-01-15T15:25:34.716Z,94165.11
2019-01-15T15:28:07.780Z,94163.19
2019-01-15T15:30:53.193Z,94151.70
2019-01-15T15:33:29.640Z,94152.02
2019-01-15T15:36:02.848Z,94153.14
2019-01-15T15:38:33.109Z,94152.02
2019-01-15T15:41:06.364Z,94155.86
2019-01-15T15:43:48.844Z,94151.06
2019-01-15T15:46:19.326Z,94142.91
2019-01-15T15:48:52.519Z,94142.22
2019-01-15T15:51:28.872Z,94144.77
2019-01-15T15:53:59.119Z,94137.58
2019-01-15T15:56:29.328Z,94143.66
2019-01-15T15:58:59.562Z,94146.82
2019-01-15T16:01:29.806Z,94137.25
2019-01-15T16:04:00.013Z,94147.14
2019-01-15T16:06:33.022Z,94140.94
2019-01-15T16:09:08.971Z,94139.98
2019-01-15T16:11:45.281Z,94155.17
2019-01-15T16:14:21.446Z,94157.91
2019-01-15T16:17:03.443Z,94154.40
2019-01-15T16:19:36.602Z,94141.13
2019-01-15T16:22:09.955Z,94149.45
2019-01-15T16:24:40.165Z,94156.48
2019-01-15T16:27:13.143Z,94170.87
2019-01-15T16:29:52.822Z,94161.27
2019-01-15T16:32:23.160Z,94160.64
2019-01-15T16:35:01.160Z,94173.44
2019-01-15T16:37:31.671Z,94170.39
2019-01-15T16:40:01.887Z,94168.47
2019-01-15T16:42:44.253Z,94166.06
2019-01-15T16:45:31.604Z,94166.20
2019-01-15T16:48:07.743Z,94168.30
2019-01-15T16:50:40.903Z,94165.72
2019-01-15T16:53:14.021Z,94172.77
2019-01-15T16:55:47.064Z,94176.14
2019-01-15T16:58:23.751Z,94175.96
2019-01-15T17:01:03.311Z,94184.94
2019-01-15T17:03:33.489Z,94183.33
2019-01-15T17:06:20.204Z,94188.92
2019-01-15T17:08:56.529Z,94187.66
2019-01-15T17:11:32.781Z,94193.58
2019-01-15T17:14:19.426Z,94188.13
2019-01-15T17:16:49.772Z,94195.59
2019-01-15T17:19:26.001Z,94187.63
2019-01-15T17:21:59.190Z,94180.47
2019-01-15T17:24:32.129Z,94181.36
2019-01-15T17:27:02.446Z,94168.79
2019-01-15T17:29:50.580Z,94178.70
2019-01-15T17:32:31.369Z,94186.52
2019-01-15T17:35:20.108Z,94172.13
2019-01-15T17:37:50.347Z,94173.85
2019-01-15T17:40:26.621Z,94187.13
2019-01-15T17:42:56.971Z,94181.66
2019-01-15T17:45:36.372Z,94174.36
2019-01-15T17:48:07.488Z,94171.14
2019-01-15T17:50:54.394Z,94155.19
2019-01-15T17:53:41.213Z,94167.77
2019-01-15T17:56:14.301Z,94160.13
2019-01-15T17:58:44.540Z,94154.23
2019-01-15T18:01:27.460Z,94159.34
2019-01-15T18:03:57.778Z,94167.00
2019-01-15T18:06:27.983Z,94159.16
2019-01-15T18:09:14.386Z,94154.81
2019-01-15T18:11:47.272Z,94157.54
2019-01-15T18:14:17.523Z,94161.40
2019-01-15T18:17:06.119Z,94162.98
2019-01-15T18:19:36.410Z,94173.52
2019-01-15T18:22:13.197Z,94156.81
2019-01-15T18:24:55.729Z,94171.34
2019-01-15T18:27:44.109Z,94155.52
2019-01-15T18:30:26.503Z,94158.07
2019-01-15T18:33:00.298Z,94165.11
2019-01-15T18:35:39.446Z,94169.89
2019-01-15T18:38:12.402Z,94165.40
2019-01-15T18:40:58.923Z,94176.27
2019-01-15T18:43:32.187Z,94181.08
2019-01-15T18:46:02.524Z,94190.50
2019-01-15T18:48:38.809Z,94191.64
2019-01-15T18:51:25.194Z,94194.52
2019-01-15T18:54:04.635Z,94204.39
2019-01-15T18:56:37.838Z,94207.89
2019-01-15T18:59:11.039Z,94194.05
2019-01-15T19:01:41.468Z,94195.97
2019-01-15T19:04:11.717Z,94199.91
2019-01-15T19:06:48.188Z,94188.29
2019-01-15T19:09:18.464Z,94198.67
2019-01-15T19:11:48.904Z,94206.84
2019-01-15T19:14:32.532Z,94206.20
2019-01-15T19:17:05.654Z,94197.72
2019-01-15T19:19:38.841Z,94207.63
2019-01-15T19:22:09.107Z,94191.03
2019-01-15T19:24:39.397Z,94194.86
2019-01-15T19:27:15.476Z,94193.08
2019-01-15T19:29:45.754Z,94204.10
2019-01-15T19:32:28.398Z,94204.88
2019-01-15T19:34:58.701Z,94200.22
2019-01-15T19:37:45.402Z,94191.29
2019-01-15T19:40:20.048Z,94208.07
2019-01-15T19:42:50.315Z,94198.28
2019-01-15T19:45:26.273Z,94203.42
2019-01-15T19:48:00.359Z,94189.39
2019-01-15T19:50:30.622Z,94195.11
2019-01-15T19:53:06.925Z,94192.58
2019-01-15T19:55:40.131Z,94187.95
2019-01-15T19:58:16.083Z,94184.11
2019-01-15T20:00:46.466Z,94206.64
2019-01-15T20:03:19.486Z,94190.00
2019-01-15T20:05:55.926Z,94198.34
2019-01-15T20:08:42.462Z,94201.17
2019-01-15T20:11:15.520Z,94218.11
2019-01-15T20:13:48.566Z,94211.39
2019-01-15T20:16:18.912Z,94213.61
2019-01-15T20:18:52.074Z,94197.66
2019-01-15T20:21:22.371Z,94197.34
2019-01-15T20:24:07.933Z,94207.56
2019-01-15T20:26:41.208Z,94195.48
2019-01-15T20:29:11.499Z,94186.83
2019-01-15T20:31:48.316Z,94182.99
2019-01-15T20:34:21.538Z,94194.38
2019-01-15T20:36:51.804Z,94191.80
2019-01-15T20:39:25.156Z,94198.20
2019-01-15T20:41:55.515Z,94185.57
2019-01-15T20:44:25.719Z,94189.73
2019-01-15T20:47:05.195Z,94191.00
2019-01-15T20:49:51.978Z,94165.74
2019-01-15T20:52:22.249Z,94173.40
2019-01-15T20:54:52.459Z,94178.97
2019-01-15T20:57:28.817Z,94163.98
2019-01-15T21:00:05.082Z,94167.80
2019-01-15T21:02:47.620Z,94167.19
2019-01-15T21:05:23.913Z,94161.34
2019-01-15T21:07:54.139Z,94171.02
2019-01-15T21:10:31.779Z,94171.33
2019-01-15T21:13:11.478Z,94160.89
2019-01-15T21:15:50.822Z,94168.55
2019-01-15T21:18:36.196Z,94160.83
2019-01-15T21:21:06.527Z,94178.87
2019-01-15T21:23:36.844Z,94185.71
2019-01-15T21:26:11.080Z,94172.41
2019-01-15T21:28:44.576Z,94169.48
2019-01-15T21:31:31.495Z,94171.82
2019-01-15T21:34:20.091Z,94171.02
2019-01-15T21:37:02.339Z,94178.64
2019-01-15T21:39:41.583Z,94183.93
2019-01-15T21:42:11.855Z,94162.86
2019-01-15T21:44:58.234Z,94164.31
2019-01-15T21:47:40.124Z,94155.81
2019-01-15T21:50:07.300Z,94150.44
2019-01-15T21:52:53.746Z,94164.88
2019-01-15T21:55:26.935Z,94167.09
2019-01-15T21:58:00.071Z,94169.52
2019-01-15T22:00:33.106Z,94166.00
2019-01-15T22:03:15.207Z,94162.33
2019-01-15T22:05:45.480Z,94150.38
2019-01-15T22:08:30.702Z,94160.69
2019-01-15T22:11:06.738Z,94157.17
2019-01-15T22:13:45.928Z,94150.34
2019-01-15T22:16:22.160Z,94149.53
2019-01-15T22:18:52.341Z,94146.70
2019-01-15T22:21:31.633Z,94150.02
2019-01-15T22:24:03.423Z,94152.42
2019-01-15T22:26:33.665Z,94157.61
2019-01-15T22:29:20.399Z,94148.77
2019-01-15T22:32:07.010Z,94150.38
2019-01-15T22:34:53.443Z,94144.33
2019-01-15T22:37:29.587Z,94133.58
2019-01-15T22:39:59.850Z,94145.70
2019-01-15T22:42:41.998Z,94124.46
2019-01-15T22:45:29.241Z,94144.24
2019-01-15T22:47:59.450Z,94144.61
2019-01-15T22:50:42.167Z,94144.32
2019-01-15T22:53:24.675Z,94145.45
2019-01-15T22:56:01.562Z,94129.38
2019-01-15T22:58:48.264Z,94143.17
2019-01-15T23:01:21.533Z,94144.97
2019-01-15T23:04:06.774Z,94138.09
2019-01-15T23:06:48.692Z,94148.30
2019-01-15T23:09:37.147Z,94144.17
2019-01-15T23:12:10.130Z,94134.13
2019-01-15T23:14:52.258Z,94149.14
2019-01-15T23:17:22.515Z,94136.52
2019-01-15T23:19:52.720Z,94144.14
2019-01-15T23:22:35.228Z,94134.56
2019-01-15T23:25:22.655Z,94133.59
2019-01-15T23:28:09.267Z,94140.73
2019-01-15T23:30:55.645Z,94139.80
2019-01-15T23:33:42.069Z,94132.75
2019-01-15T23:36:12.252Z,94149.64
2019-01-15T23:38:57.739Z,94154.47
2019-01-15T23:41:27.986Z,94152.24
2019-01-15T23:44:00.433Z,94147.25
2019-01-15T23:46:30.229Z,94146.18
2019-01-15T23:49:00.495Z,94137.52
2019-01-15T23:51:33.713Z,94135.06
2019-01-15T23:54:19.587Z,94138.00
2019-01-15T23:56:49.794Z,94141.88
2019-01-15T23:59:36.341Z,94151.61
